createdAt,value
2022-11-14T00:00:29.393Z,48.14
2022-11-14T00:02:58.650Z,47.99
2022-11-14T00:05:24.405Z,48.00
2022-11-14T00:07:50.217Z,49.38
2022-11-14T00:10:16.675Z,50.00
2022-11-14T00:12:42.456Z,50.91
2022-11-14T00:15:09.528Z,52.24
2022-11-14T00:17:35.565Z,53.49
2022-11-14T00:20:01.768Z,53.06
2022-11-14T00:22:27.537Z,53.31
2022-11-14T00:24:53.321Z,54.69
2022-11-14T00:27:19.053Z,55.26
2022-11-14T00:29:44.825Z,56.18
2022-11-14T00:32:10.625Z,56.84
2022-11-14T00:34:36.396Z,57.61
2022-11-14T00:37:02.217Z,57.24
2022-11-14T00:39:28.062Z,56.37
2022-11-14T00:41:53.884Z,57.37
2022-11-14T00:44:19.629Z,56.16
2022-11-14T00:46:45.361Z,55.89
2022-11-14T00:49:11.163Z,56.15
2022-11-14T00:51:36.965Z,56.61
2022-11-14T00:54:02.904Z,56.09
2022-11-14T00:56:28.655Z,55.63
2022-11-14T00:58:54.587Z,55.73
2022-11-14T01:01:20.388Z,55.32
2022-11-14T01:03:50.398Z,55.40
2022-11-14T01:06:17.685Z,56.18
2022-11-14T01:08:44.046Z,56.25
2022-11-14T01:11:16.394Z,57.01
2022-11-14T01:13:42.605Z,57.56
2022-11-14T01:16:09.074Z,58.01
2022-11-14T01:18:36.050Z,58.25
2022-11-14T01:21:06.075Z,59.39
2022-11-14T01:23:32.149Z,59.55
2022-11-14T01:26:06.143Z,59.10
2022-11-14T01:28:32.306Z,59.36
2022-11-14T01:31:20.577Z,60.28
2022-11-14T01:33:50.597Z,60.85
2022-11-14T01:36:16.948Z,59.85
2022-11-14T01:38:42.740Z,60.25
2022-11-14T01:41:12.620Z,60.75
2022-11-14T01:43:39.691Z,60.05
2022-11-14T01:46:21.470Z,59.97
2022-11-14T01:48:52.584Z,60.01
2022-11-14T01:51:31.985Z,59.61
2022-11-14T01:54:05.317Z,60.46
2022-11-14T01:56:35.333Z,60.60
2022-11-14T01:59:08.821Z,61.24
2022-11-14T02:01:40.878Z,61.06
2022-11-14T02:04:08.880Z,61.45
2022-11-14T02:06:38.444Z,61.42
2022-11-14T02:09:06.470Z,61.68
2022-11-14T02:11:37.171Z,62.29
2022-11-14T02:14:03.516Z,61.74
2022-11-14T02:16:29.315Z,62.90
2022-11-14T02:18:55.089Z,63.09
2022-11-14T02:21:21.089Z,63.70
2022-11-14T02:23:46.848Z,64.20
2022-11-14T02:26:14.819Z,64.99
2022-11-14T02:28:40.563Z,65.10
2022-11-14T02:31:06.286Z,64.99
2022-11-14T02:33:32.043Z,66.08
2022-11-14T02:35:58.190Z,65.91
2022-11-14T02:38:23.948Z,66.18
2022-11-14T02:40:49.675Z,67.23
2022-11-14T02:43:15.459Z,68.49
2022-11-14T02:45:41.329Z,67.91
2022-11-14T02:48:07.152Z,67.98
2022-11-14T02:50:32.953Z,68.47
2022-11-14T02:52:58.853Z,68.85
2022-11-14T02:55:24.593Z,68.81
2022-11-14T02:57:50.414Z,69.13
2022-11-14T03:00:16.843Z,69.25
2022-11-14T03:02:42.778Z,69.29
2022-11-14T03:05:08.587Z,68.62
2022-11-14T03:07:34.404Z,68.77
2022-11-14T03:10:00.324Z,69.12
2022-11-14T03:12:26.067Z,68.97
2022-11-14T03:14:51.782Z,69.75
2022-11-14T03:17:17.525Z,69.52
2022-11-14T03:19:43.280Z,69.81
2022-11-14T03:22:09.045Z,70.47
2022-11-14T03:24:37.803Z,71.05
2022-11-14T03:27:03.612Z,71.49
2022-11-14T03:29:29.393Z,71.76
2022-11-14T03:31:55.170Z,71.56
2022-11-14T03:34:20.933Z,71.88
2022-11-14T03:36:46.676Z,72.61
2022-11-14T03:39:12.445Z,74.13
2022-11-14T03:41:38.182Z,74.19
2022-11-14T03:44:03.954Z,73.97
2022-11-14T03:46:29.740Z,74.26
2022-11-14T03:48:55.524Z,74.08
2022-11-14T03:51:21.320Z,74.73
2022-11-14T03:53:47.053Z,74.71
2022-11-14T03:56:12.855Z,76.01
2022-11-14T03:58:38.649Z,75.43
2022-11-14T04:01:04.425Z,74.90
2022-11-14T04:03:30.170Z,74.76
2022-11-14T04:05:55.913Z,74.98
2022-11-14T04:08:21.687Z,74.66
2022-11-14T04:10:48.136Z,74.98
2022-11-14T04:13:14.059Z,75.15
2022-11-14T04:15:39.965Z,75.37
2022-11-14T04:18:05.743Z,76.07
2022-11-14T04:20:31.585Z,75.64
2022-11-14T04:22:57.314Z,75.20
2022-11-14T04:25:23.113Z,75.53
2022-11-14T04:27:48.903Z,74.71
2022-11-14T04:30:14.888Z,75.69
2022-11-14T04:32:40.627Z,76.64
2022-11-14T04:35:06.673Z,76.73
2022-11-14T04:37:32.474Z,77.53
2022-11-14T04:40:00.146Z,77.44
2022-11-14T04:42:26.713Z,77.96
2022-11-14T04:44:52.494Z,77.85
2022-11-14T04:47:18.292Z,78.50
2022-11-14T04:49:44.069Z,79.12
2022-11-14T04:52:09.800Z,79.25
2022-11-14T04:54:35.571Z,79.88
2022-11-14T04:57:01.307Z,79.17
2022-11-14T04:59:27.073Z,79.22
2022-11-14T05:01:52.931Z,79.20
2022-11-14T05:04:18.978Z,79.76
2022-11-14T05:06:44.806Z,80.06
2022-11-14T05:09:11.138Z,79.79
2022-11-14T05:11:36.863Z,79.61
2022-11-14T05:14:02.897Z,80.31
2022-11-14T05:16:28.654Z,81.35
2022-11-14T05:18:54.478Z,81.61
2022-11-14T05:21:20.353Z,81.97
2022-11-14T05:23:46.126Z,82.70
2022-11-14T05:26:15.027Z,83.32
2022-11-14T05:28:40.890Z,82.63
2022-11-14T05:31:09.873Z,84.44
2022-11-14T05:33:36.014Z,84.87
2022-11-14T05:36:06.759Z,85.53
2022-11-14T05:38:33.385Z,87.04
2022-11-14T05:40:59.642Z,86.58
2022-11-14T05:43:28.948Z,86.05
2022-11-14T05:45:59.745Z,87.17
2022-11-14T05:48:25.557Z,87.37
2022-11-14T05:50:55.933Z,86.53
2022-11-14T05:53:21.854Z,86.35
2022-11-14T05:55:47.618Z,86.25
2022-11-14T05:58:13.360Z,86.40
2022-11-14T06:00:46.554Z,85.99
2022-11-14T06:03:16.614Z,85.10
2022-11-14T06:05:43.299Z,85.29
2022-11-14T06:08:09.304Z,86.08
2022-11-14T06:10:35.351Z,85.69
2022-11-14T06:13:01.404Z,86.18
2022-11-14T06:15:27.524Z,86.58
2022-11-14T06:17:53.653Z,86.62
2022-11-14T06:20:20.175Z,87.80
2022-11-14T06:22:46.062Z,87.72
2022-11-14T06:25:11.897Z,88.35
2022-11-14T06:27:37.676Z,88.50
2022-11-14T06:30:03.883Z,89.07
2022-11-14T06:32:29.675Z,88.80
2022-11-14T06:34:55.428Z,88.66
2022-11-14T06:37:21.239Z,89.31
2022-11-14T06:39:47.015Z,88.80
2022-11-14T06:42:15.344Z,89.62
2022-11-14T06:44:41.117Z,89.89
2022-11-14T06:47:06.861Z,89.43
2022-11-14T06:49:35.337Z,89.68
2022-11-14T06:52:05.150Z,89.49
2022-11-14T06:54:30.923Z,89.90
2022-11-14T06:56:56.780Z,90.44
2022-11-14T06:59:22.539Z,89.96
2022-11-14T07:01:48.278Z,89.27
2022-11-14T07:04:14.094Z,89.67
2022-11-14T07:06:39.908Z,90.00
2022-11-14T07:09:05.636Z,89.48
2022-11-14T07:11:32.457Z,89.45
2022-11-14T07:13:59.800Z,89.10
2022-11-14T07:16:31.435Z,88.37
2022-11-14T07:19:01.524Z,88.81
2022-11-14T07:21:28.937Z,88.69
2022-11-14T07:23:56.000Z,89.34
2022-11-14T07:26:22.044Z,89.75
2022-11-14T07:28:52.433Z,89.81
2022-11-14T07:31:20.833Z,89.40
2022-11-14T07:33:47.410Z,90.50
2022-11-14T07:36:14.788Z,90.72
2022-11-14T07:38:40.514Z,90.42
2022-11-14T07:41:12.037Z,90.36
2022-11-14T07:43:38.194Z,90.50
2022-11-14T07:46:15.815Z,90.06
2022-11-14T07:48:41.969Z,90.91
2022-11-14T07:51:14.643Z,91.69
2022-11-14T07:53:40.626Z,91.32
2022-11-14T07:56:10.984Z,92.48
2022-11-14T07:58:38.707Z,92.79
2022-11-14T08:01:06.720Z,92.69
2022-11-14T08:03:33.066Z,91.58
2022-11-14T08:06:06.360Z,90.19
2022-11-14T08:08:32.861Z,91.70
2022-11-14T08:10:59.437Z,91.58
2022-11-14T08:13:32.153Z,90.90
2022-11-14T08:16:01.826Z,91.62
2022-11-14T08:18:27.845Z,91.28
2022-11-14T08:20:56.786Z,91.64
2022-11-14T08:23:22.882Z,91.88
2022-11-14T08:25:48.759Z,91.75
2022-11-14T08:28:14.540Z,92.12
2022-11-14T08:30:40.313Z,92.90
2022-11-14T08:33:06.899Z,93.61
2022-11-14T08:35:33.118Z,94.17
2022-11-14T08:38:00.942Z,96.34
2022-11-14T08:40:26.722Z,98.48
2022-11-14T08:43:01.935Z,99.07
2022-11-14T08:45:28.791Z,100.00
2022-11-14T08:47:54.886Z,100.00
2022-11-14T08:50:20.856Z,100.00
2022-11-14T08:52:51.364Z,100.00
2022-11-14T08:55:18.302Z,100.00
2022-11-14T08:57:48.151Z,100.00
2022-11-14T09:00:15.765Z,100.00
2022-11-14T09:02:41.590Z,100.00
2022-11-14T09:05:07.968Z,100.00
2022-11-14T09:07:33.846Z,100.00
2022-11-14T09:09:59.615Z,100.00
2022-11-14T09:12:25.333Z,100.00
2022-11-14T09:14:51.101Z,100.00
2022-11-14T09:17:16.852Z,100.00
2022-11-14T09:19:42.636Z,100.00
2022-11-14T09:22:08.398Z,100.00
2022-11-14T09:24:34.168Z,100.00
2022-11-14T09:26:59.906Z,100.00
2022-11-14T09:29:25.752Z,100.00
2022-11-14T09:31:52.380Z,100.00
2022-11-14T09:34:18.267Z,100.00
2022-11-14T09:36:44.093Z,100.00
2022-11-14T09:39:09.820Z,100.00
2022-11-14T09:41:50.447Z,100.00
2022-11-14T09:44:20.754Z,100.00
2022-11-14T09:47:09.121Z,100.00
2022-11-14T09:49:38.685Z,100.00
2022-11-14T09:52:30.431Z,100.00
2022-11-14T09:54:58.872Z,100.00
2022-11-14T09:57:25.941Z,100.00
2022-11-14T09:59:51.928Z,100.00
2022-11-14T10:02:35.973Z,100.00
2022-11-14T10:05:22.098Z,100.00
2022-11-14T10:08:12.614Z,100.00
2022-11-14T10:10:47.908Z,100.00
2022-11-14T10:13:49.999Z,100.00
2022-11-14T10:16:38.761Z,100.00
2022-11-14T10:19:19.880Z,100.00
2022-11-14T10:21:54.963Z,100.00
2022-11-14T10:24:50.829Z,100.00
2022-11-14T10:27:27.196Z,100.00
2022-11-14T10:30:00.746Z,100.00
2022-11-14T10:33:01.348Z,100.00
2022-11-14T10:35:42.035Z,100.00
2022-11-14T10:38:20.472Z,100.00
2022-11-14T10:40:49.690Z,100.00
2022-11-14T10:43:27.693Z,100.00
2022-11-14T10:46:02.249Z,95.50
2022-11-14T10:48:31.236Z,59.92
2022-11-14T10:51:18.407Z,41.56
2022-11-14T10:53:59.768Z,31.79
2022-11-14T10:56:25.564Z,32.93
2022-11-14T10:58:51.375Z,31.38
2022-11-14T11:01:55.354Z,27.03
2022-11-14T11:04:36.217Z,27.52
2022-11-14T11:07:07.888Z,35.88
2022-11-14T11:09:54.307Z,41.04
2022-11-14T11:12:36.796Z,49.39
2022-11-14T11:15:30.788Z,46.96
2022-11-14T11:17:58.959Z,46.36
2022-11-14T11:20:32.011Z,48.08
2022-11-14T11:23:05.074Z,50.10
2022-11-14T11:25:32.598Z,62.24
2022-11-14T11:28:19.841Z,73.03
2022-11-14T11:30:57.101Z,67.69
2022-11-14T11:33:25.892Z,63.25
2022-11-14T11:35:56.880Z,58.32
2022-11-14T11:38:28.488Z,54.82
2022-11-14T11:41:25.917Z,56.07
2022-11-14T11:44:13.631Z,53.96
2022-11-14T11:46:42.205Z,55.63
2022-11-14T11:49:17.827Z,50.33
2022-11-14T11:51:45.691Z,52.93
2022-11-14T11:54:26.321Z,54.29
2022-11-14T11:56:58.662Z,56.03
2022-11-14T12:00:01.967Z,62.11
2022-11-14T12:02:28.081Z,69.61
2022-11-14T12:04:56.865Z,70.06
2022-11-14T12:07:46.180Z,73.61
2022-11-14T12:10:19.872Z,82.20
2022-11-14T12:13:04.473Z,86.86
2022-11-14T12:16:03.348Z,87.41
2022-11-14T12:18:50.590Z,88.23
2022-11-14T12:21:40.798Z,90.16
2022-11-14T12:24:12.577Z,91.68
2022-11-14T12:27:04.200Z,91.56
2022-11-14T12:30:07.466Z,92.72
2022-11-14T12:32:40.737Z,95.08
2022-11-14T12:35:16.140Z,95.13
2022-11-14T12:37:51.285Z,95.08
2022-11-14T12:40:29.353Z,94.09
2022-11-14T12:42:57.073Z,95.03
2022-11-14T12:45:41.010Z,96.88
2022-11-14T12:48:24.811Z,97.45
2022-11-14T12:50:52.323Z,98.30
2022-11-14T12:53:36.226Z,97.21
2022-11-14T12:56:01.962Z,94.62
2022-11-14T12:58:36.129Z,83.89
2022-11-14T13:01:08.413Z,83.76
2022-11-14T13:04:00.192Z,88.40
2022-11-14T13:07:07.398Z,93.28
2022-11-14T13:09:40.117Z,95.98
2022-11-14T13:12:44.212Z,95.46
2022-11-14T13:15:49.471Z,96.57
2022-11-14T13:18:38.904Z,97.10
2022-11-14T13:21:34.816Z,98.50
2022-11-14T13:24:00.885Z,97.72
2022-11-14T13:26:26.601Z,99.02
2022-11-14T13:28:53.050Z,100.00
2022-11-14T13:31:21.323Z,99.19
2022-11-14T13:33:49.887Z,99.62
2022-11-14T13:36:30.548Z,98.17
2022-11-14T13:39:13.086Z,96.60
2022-11-14T13:41:57.277Z,95.19
2022-11-14T13:44:37.997Z,96.13
2022-11-14T13:47:20.303Z,97.45
2022-11-14T13:50:08.028Z,97.56
2022-11-14T13:52:41.509Z,97.88
2022-11-14T13:55:07.806Z,100.00
2022-11-14T13:57:47.949Z,100.00
2022-11-14T14:00:20.749Z,100.00
2022-11-14T14:02:57.082Z,100.00
2022-11-14T14:05:28.941Z,100.00
2022-11-14T14:08:18.927Z,100.00
2022-11-14T14:11:21.907Z,100.00
2022-11-14T14:14:14.259Z,100.00
2022-11-14T14:17:01.420Z,100.00
2022-11-14T14:19:39.178Z,100.00
2022-11-14T14:22:07.813Z,100.00
2022-11-14T14:24:59.163Z,100.00
2022-11-14T14:27:34.245Z,100.00
2022-11-14T14:30:13.704Z,100.00
2022-11-14T14:32:39.670Z,100.00
2022-11-14T14:35:29.386Z,100.00
2022-11-14T14:37:56.492Z,100.00
2022-11-14T14:40:28.513Z,100.00
2022-11-14T14:42:56.707Z,100.00
2022-11-14T14:45:25.032Z,100.00
2022-11-14T14:48:03.452Z,100.00
2022-11-14T14:50:53.990Z,100.00
2022-11-14T14:53:23.187Z,100.00
2022-11-14T14:55:57.303Z,100.00
2022-11-14T14:58:24.025Z,100.00
2022-11-14T15:00:53.643Z,100.00
2022-11-14T15:03:20.668Z,100.00
2022-11-14T15:05:46.480Z,100.00
2022-11-14T15:08:14.829Z,100.00
2022-11-14T15:10:41.119Z,100.00
2022-11-14T15:13:13.597Z,100.00
2022-11-14T15:15:39.631Z,100.00
2022-11-14T15:18:07.748Z,100.00
2022-11-14T15:20:33.782Z,100.00
2022-11-14T15:23:14.774Z,100.00
2022-11-14T15:25:41.812Z,100.00
2022-11-14T15:28:25.823Z,100.00
2022-11-14T15:31:00.581Z,100.00
2022-11-14T15:33:29.665Z,100.00
2022-11-14T15:36:18.939Z,100.00
2022-11-14T15:39:26.935Z,100.00
2022-11-14T15:42:23.392Z,100.00
2022-11-14T15:44:49.911Z,100.00
2022-11-14T15:47:26.001Z,100.00
2022-11-14T15:49:59.266Z,100.00
2022-11-14T15:52:33.766Z,100.00
2022-11-14T15:55:00.138Z,100.00
2022-11-14T15:57:25.968Z,100.00
2022-11-14T15:59:51.888Z,100.00
2022-11-14T16:02:21.536Z,100.00
2022-11-14T16:04:49.358Z,100.00
2022-11-14T16:07:16.455Z,100.00
2022-11-14T16:09:42.511Z,100.00
2022-11-14T16:12:08.337Z,100.00
2022-11-14T16:14:34.261Z,100.00
2022-11-14T16:17:00.216Z,100.00
2022-11-14T16:19:26.039Z,100.00
2022-11-14T16:21:51.888Z,100.00
2022-11-14T16:24:20.502Z,100.00
2022-11-14T16:26:47.195Z,100.00
2022-11-14T16:29:13.415Z,100.00
2022-11-14T16:31:39.281Z,100.00
2022-11-14T16:34:06.077Z,100.00
2022-11-14T16:36:31.939Z,100.00
2022-11-14T16:39:00.482Z,100.00
2022-11-14T16:41:26.946Z,100.00
2022-11-14T16:43:56.683Z,100.00
2022-11-14T16:46:23.385Z,100.00
2022-11-14T16:48:49.385Z,100.00
2022-11-14T16:51:45.753Z,100.00
2022-11-14T16:54:00.975Z,100.00
2022-11-14T16:56:26.816Z,100.00
2022-11-14T16:58:53.948Z,100.00
2022-11-14T17:01:21.412Z,100.00
2022-11-14T17:03:47.590Z,100.00
2022-11-14T17:06:13.835Z,100.00
2022-11-14T17:08:39.625Z,100.00
2022-11-14T17:11:09.580Z,100.00
2022-11-14T17:13:36.500Z,100.00
2022-11-14T17:16:03.857Z,100.00
2022-11-14T17:18:34.080Z,100.00
2022-11-14T17:21:08.292Z,100.00
2022-11-14T17:23:34.501Z,100.00
2022-11-14T17:26:05.178Z,100.00
2022-11-14T17:28:33.058Z,100.00
2022-11-14T17:30:59.250Z,100.00
2022-11-14T17:33:25.042Z,100.00
2022-11-14T17:35:50.781Z,100.00
2022-11-14T17:38:16.616Z,100.00
2022-11-14T17:40:42.394Z,100.00
2022-11-14T17:43:08.565Z,100.00
2022-11-14T17:45:37.889Z,100.00
2022-11-14T17:48:06.383Z,100.00
2022-11-14T17:50:37.459Z,100.00
2022-11-14T17:53:03.660Z,100.00
2022-11-14T17:55:29.431Z,100.00
2022-11-14T17:57:55.267Z,100.00
2022-11-14T18:00:21.075Z,100.00
2022-11-14T18:02:46.883Z,100.00
2022-11-14T18:05:12.707Z,100.00
2022-11-14T18:07:38.546Z,100.00
2022-11-14T18:10:04.775Z,100.00
2022-11-14T18:12:30.544Z,100.00
2022-11-14T18:14:56.320Z,100.00
2022-11-14T18:17:22.191Z,100.00
2022-11-14T18:19:47.987Z,100.00
2022-11-14T18:22:13.879Z,100.00
2022-11-14T18:24:42.590Z,100.00
2022-11-14T18:27:08.344Z,100.00
2022-11-14T18:29:34.202Z,100.00
2022-11-14T18:32:00.046Z,100.00
2022-11-14T18:34:25.915Z,100.00
2022-11-14T18:36:51.718Z,100.00
2022-11-14T18:39:17.560Z,100.00
2022-11-14T18:41:43.382Z,100.00
2022-11-14T18:44:09.218Z,100.00
2022-11-14T18:46:37.590Z,100.00
2022-11-14T18:49:03.584Z,100.00
2022-11-14T18:51:30.200Z,100.00
2022-11-14T18:53:58.443Z,100.00
2022-11-14T18:56:24.780Z,100.00
2022-11-14T18:58:56.672Z,100.00
2022-11-14T19:01:25.570Z,100.00
2022-11-14T19:03:54.460Z,100.00
2022-11-14T19:06:20.340Z,100.00
2022-11-14T19:08:46.236Z,100.00
2022-11-14T19:11:33.734Z,100.00
2022-11-14T19:14:05.018Z,100.00
2022-11-14T19:16:32.081Z,100.00
2022-11-14T19:18:58.930Z,100.00
2022-11-14T19:21:25.292Z,100.00
2022-11-14T19:23:52.978Z,100.00
2022-11-14T19:26:18.704Z,100.00
2022-11-14T19:28:44.541Z,100.00
2022-11-14T19:31:10.645Z,100.00
2022-11-14T19:33:40.479Z,100.00
2022-11-14T19:36:09.993Z,100.00
2022-11-14T19:38:35.958Z,100.00
2022-11-14T19:41:20.039Z,100.00
2022-11-14T19:43:46.497Z,100.00
2022-11-14T19:46:13.369Z,100.00
2022-11-14T19:48:39.876Z,100.00
2022-11-14T19:51:09.396Z,100.00
2022-11-14T19:53:37.108Z,100.00
2022-11-14T19:56:06.117Z,100.00
2022-11-14T19:58:34.278Z,100.00
2022-11-14T20:01:15.263Z,100.00
2022-11-14T20:03:41.636Z,100.00
2022-11-14T20:06:22.698Z,100.00
2022-11-14T20:08:56.022Z,100.00
2022-11-14T20:11:25.411Z,100.00
2022-11-14T20:13:51.257Z,100.00
2022-11-14T20:16:19.247Z,100.00
2022-11-14T20:18:55.857Z,100.00
2022-11-14T20:21:25.886Z,100.00
2022-11-14T20:23:52.440Z,100.00
2022-11-14T20:26:19.230Z,100.00
2022-11-14T20:28:47.023Z,100.00
2022-11-14T20:31:15.828Z,100.00
2022-11-14T20:33:44.358Z,100.00
2022-11-14T20:36:12.942Z,100.00
2022-11-14T20:38:38.855Z,100.00
2022-11-14T20:41:05.840Z,100.00
2022-11-14T20:43:32.142Z,100.00
2022-11-14T20:46:03.884Z,100.00
2022-11-14T20:48:32.846Z,100.00
2022-11-14T20:51:06.028Z,100.00
2022-11-14T20:53:33.037Z,100.00
2022-11-14T20:55:59.710Z,100.00
2022-11-14T20:58:26.477Z,100.00
2022-11-14T21:00:53.237Z,100.00
2022-11-14T21:03:19.560Z,100.00
2022-11-14T21:05:45.427Z,100.00
2022-11-14T21:08:12.289Z,100.00
2022-11-14T21:10:45.344Z,100.00
2022-11-14T21:13:31.437Z,100.00
2022-11-14T21:15:58.573Z,100.00
2022-11-14T21:18:24.711Z,100.00
2022-11-14T21:21:01.429Z,100.00
2022-11-14T21:23:27.648Z,100.00
2022-11-14T21:26:01.011Z,100.00
2022-11-14T21:28:29.230Z,100.00
2022-11-14T21:30:55.214Z,100.00
2022-11-14T21:33:21.013Z,100.00
2022-11-14T21:35:46.748Z,100.00
2022-11-14T21:38:12.675Z,100.00
2022-11-14T21:40:38.988Z,100.00
2022-11-14T21:43:04.754Z,100.00
2022-11-14T21:45:30.554Z,100.00
2022-11-14T21:47:56.569Z,100.00
2022-11-14T21:50:22.493Z,100.00
2022-11-14T21:52:48.399Z,100.00
2022-11-14T21:55:14.252Z,100.00
2022-11-14T21:57:40.035Z,100.00
2022-11-14T22:00:06.566Z,100.00
2022-11-14T22:02:51.161Z,100.00
2022-11-14T22:05:16.915Z,100.00
2022-11-14T22:07:42.782Z,100.00
2022-11-14T22:10:08.755Z,100.00
2022-11-14T22:12:34.625Z,100.00
2022-11-14T22:15:00.687Z,100.00
2022-11-14T22:17:30.677Z,100.00
2022-11-14T22:19:56.424Z,100.00
2022-11-14T22:22:22.183Z,100.00
2022-11-14T22:24:47.919Z,100.00
2022-11-14T22:27:13.671Z,100.00
2022-11-14T22:29:39.433Z,100.00
2022-11-14T22:32:05.211Z,100.00
2022-11-14T22:34:30.954Z,100.00
2022-11-14T22:36:56.744Z,100.00
2022-11-14T22:39:22.541Z,100.00
2022-11-14T22:41:48.393Z,100.00
2022-11-14T22:44:14.128Z,100.00
2022-11-14T22:46:39.875Z,100.00
2022-11-14T22:49:05.715Z,100.00
2022-11-14T22:51:31.578Z,100.00
2022-11-14T22:53:58.368Z,100.00
2022-11-14T22:56:26.955Z,100.00
2022-11-14T22:58:52.806Z,100.00
2022-11-14T23:01:26.144Z,100.00
2022-11-14T23:03:54.513Z,100.00
2022-11-14T23:06:21.081Z,100.00
2022-11-14T23:08:46.869Z,100.00
2022-11-14T23:11:16.113Z,100.00
2022-11-14T23:13:50.602Z,100.00
2022-11-14T23:16:22.074Z,100.00
2022-11-14T23:18:49.259Z,100.00
2022-11-14T23:21:18.455Z,100.00
2022-11-14T23:23:44.337Z,100.00
2022-11-14T23:26:15.343Z,100.00
2022-11-14T23:28:41.486Z,100.00
2022-11-14T23:31:08.731Z,100.00
2022-11-14T23:33:35.082Z,100.00
2022-11-14T23:36:01.498Z,100.00
2022-11-14T23:38:29.928Z,100.00
2022-11-14T23:41:00.164Z,100.00
2022-11-14T23:43:26.702Z,100.00
2022-11-14T23:45:53.047Z,100.00
2022-11-14T23:48:20.226Z,100.00
2022-11-14T23:50:53.276Z,100.00
2022-11-14T23:53:19.595Z,100.00
2022-11-14T23:55:53.153Z,100.00
2022-11-14T23:58:20.614Z,100.00
